Time;durP1;ratioP1;P1;durP2;ratioP2;P2;SDS_P1;SDS_P2;PMS_P1;PMS_P2;Temp;Humidity;BMP_temperature;BMP_pressure;BME280_temperature;BME280_humidity;BME280_pressure;Samples;Min_cycle;Max_cycle;Signal;HPM_P1;HPM_P2
2021/07/31 00:01:49;;;;;;;10.63;8.93;;;20.00;99.90;;;;;;5049583;28;20451;-72
2021/07/31 00:04:17;;;;;;;10.00;7.43;;;20.10;99.90;;;;;;5050285;28;20441;-71
2021/07/31 00:06:46;;;;;;;9.53;8.27;;;20.10;99.90;;;;;;5049492;28;20896;-72
2021/07/31 00:09:15;;;;;;;8.23;7.30;;;20.00;99.90;;;;;;5050476;28;20394;-71
2021/07/31 00:11:43;;;;;;;7.90;6.97;;;19.90;99.90;;;;;;5052972;28;20425;-74
2021/07/31 00:14:12;;;;;;;8.93;7.27;;;19.80;99.90;;;;;;5054025;28;20406;-72
2021/07/31 00:16:41;;;;;;;10.47;9.13;;;19.90;99.90;;;;;;5053234;28;20729;-70
2021/07/31 00:19:09;;;;;;;8.83;7.93;;;19.80;99.90;;;;;;5053011;28;20418;-70
2021/07/31 00:21:37;;;;;;;9.23;8.33;;;19.80;99.90;;;;;;5053980;28;20867;-69
2021/07/31 00:24:06;;;;;;;9.27;8.37;;;19.80;99.90;;;;;;5056140;28;20445;-70
2021/07/31 00:26:35;;;;;;;9.10;8.20;;;19.80;99.90;;;;;;5054628;28;20412;-70
2021/07/31 00:29:04;;;;;;;10.27;8.10;;;19.80;99.90;;;;;;5053573;28;20945;-70
2021/07/31 00:31:32;;;;;;;7.50;6.80;;;19.80;99.90;;;;;;5053392;28;20447;-74
2021/07/31 00:34:03;;;;;;;10.10;7.00;;;19.70;99.90;;;;;;5051924;28;20525;-70
2021/07/31 00:36:31;;;;;;;8.40;6.57;;;19.60;99.90;;;;;;5053311;28;20415;-70
2021/07/31 00:38:59;;;;;;;10.17;6.40;;;19.60;99.90;;;;;;5053161;28;20393;-70
2021/07/31 00:41:28;;;;;;;6.97;6.27;;;19.50;99.90;;;;;;5053502;28;20420;-71
2021/07/31 00:43:57;;;;;;;7.13;6.43;;;19.50;99.90;;;;;;5052901;28;20459;-70
2021/07/31 00:46:27;;;;;;;9.47;6.50;;;19.50;99.90;;;;;;5053057;28;20410;-70
2021/07/31 00:48:56;;;;;;;7.13;6.20;;;19.50;99.90;;;;;;5053122;28;20427;-70
2021/07/31 00:51:28;;;;;;;6.70;5.80;;;19.50;99.90;;;;;;5051915;28;20541;-70
2021/07/31 00:53:56;;;;;;;6.70;5.90;;;19.60;99.90;;;;;;5052871;28;20695;-70
2021/07/31 00:56:25;;;;;;;6.53;5.90;;;19.60;99.90;;;;;;5052698;28;20394;-74
2021/07/31 00:58:53;;;;;;;6.40;5.30;;;19.60;99.90;;;;;;5052710;28;20427;-70
2021/07/31 01:01:23;;;;;;;9.57;5.10;;;19.60;99.90;;;;;;5051628;28;20451;-71
2021/07/31 01:03:52;;;;;;;8.60;4.77;;;19.50;99.90;;;;;;5052703;28;20632;-70
2021/07/31 01:06:21;;;;;;;13.60;4.90;;;19.50;99.90;;;;;;5051441;28;20459;-70
2021/07/31 01:08:49;;;;;;;5.90;5.30;;;19.60;99.90;;;;;;5052454;28;20914;-72
2021/07/31 01:11:20;;;;;;;7.03;4.33;;;19.50;99.90;;;;;;5052600;28;20410;-70
2021/07/31 01:13:51;;;;;;;7.30;6.10;;;19.50;99.90;;;;;;5050995;28;20501;-70
2021/07/31 01:16:19;;;;;;;5.53;4.90;;;19.60;99.90;;;;;;5051130;28;20440;-69
2021/07/31 01:18:49;;;;;;;4.77;4.37;;;19.60;99.90;;;;;;5050838;28;20793;-70
2021/07/31 01:21:37;;;;;;;6.50;5.27;;;19.60;99.90;;;;;;5052367;28;20810;-71
2021/07/31 01:24:17;;;;;;;5.93;4.87;;;19.60;99.90;;;;;;5050593;28;20845;-70
2021/07/31 01:26:48;;;;;;;7.97;5.90;;;19.70;99.90;;;;;;5050585;28;20421;-72
2021/07/31 01:29:18;;;;;;;6.03;4.67;;;19.90;99.90;;;;;;5051825;28;20455;-70
2021/07/31 01:31:47;;;;;;;6.00;4.10;;;19.90;99.90;;;;;;5052030;28;20409;-70
2021/07/31 01:34:16;;;;;;;8.77;4.93;;;20.00;99.90;;;;;;5050883;28;20398;-70
2021/07/31 01:36:47;;;;;;;5.07;4.67;;;19.90;99.90;;;;;;5050587;28;20397;-71
2021/07/31 01:39:17;;;;;;;5.40;4.70;;;20.10;99.90;;;;;;5067204;28;20428;-70
2021/07/31 01:41:45;;;;;;;6.20;5.70;;;20.20;99.90;;;;;;5067286;28;20962;-70
2021/07/31 01:44:14;;;;;;;5.67;5.17;;;20.20;99.90;;;;;;5050100;28;20475;-69
2021/07/31 01:46:43;;;;;;;5.47;4.97;;;20.20;99.90;;;;;;5051730;28;20435;-70
2021/07/31 01:49:12;;;;;;;6.27;4.70;;;20.30;99.90;;;;;;5050378;28;20516;-71
2021/07/31 01:51:49;;;;;;;4.77;4.37;;;20.30;99.90;;;;;;5050451;28;20417;-71
2021/07/31 01:54:18;;;;;;;8.33;6.00;;;20.20;99.90;;;;;;5051473;28;20393;-71
2021/07/31 01:56:47;;;;;;;5.47;4.97;;;20.20;99.90;;;;;;5050090;28;20443;-70
2021/07/31 01:59:18;;;;;;;5.73;5.13;;;20.20;99.90;;;;;;5049988;28;20485;-70
2021/07/31 02:01:49;;;;;;;4.87;4.43;;;20.00;99.90;;;;;;5050307;28;20992;-71
2021/07/31 02:04:21;;;;;;;6.13;4.00;;;19.90;99.90;;;;;;5050218;28;20485;-70
2021/07/31 02:07:20;;;;;;;5.43;3.93;;;19.70;99.90;;;;;;5033795;28;20488;-70
2021/07/31 02:09:49;;;;;;;5.10;4.60;;;19.70;99.90;;;;;;5049948;28;20447;-70
2021/07/31 02:12:17;;;;;;;4.43;4.10;;;19.70;99.90;;;;;;5066848;28;20971;-70
2021/07/31 02:14:48;;;;;;;4.50;4.20;;;19.70;99.90;;;;;;5049752;28;20409;-70
2021/07/31 02:17:20;;;;;;;6.17;5.00;;;19.70;99.90;;;;;;5051340;28;20419;-71
2021/07/31 02:19:48;;;;;;;5.23;4.00;;;19.80;99.90;;;;;;5051237;28;20423;-71
2021/07/31 02:22:37;;;;;;;10.03;4.80;;;19.80;99.90;;;;;;5051664;28;20598;-70
2021/07/31 02:25:23;;;;;;;5.40;4.90;;;19.90;99.90;;;;;;5050738;28;20535;-70
2021/07/31 02:28:18;;;;;;;4.60;4.17;;;19.90;99.90;;;;;;5027543;28;20405;-70
2021/07/31 02:30:46;;;;;;;4.67;4.17;;;19.90;99.90;;;;;;5051100;28;20418;-70
2021/07/31 02:33:15;;;;;;;5.23;4.57;;;19.90;99.90;;;;;;5051038;28;20759;-74
2021/07/31 02:35:43;;;;;;;5.23;4.27;;;19.80;99.90;;;;;;5050817;28;20401;-70
2021/07/31 02:38:38;;;;;;;4.23;3.83;;;19.80;99.90;;;;;;5049537;28;20418;-74
2021/07/31 02:41:07;;;;;;;4.57;4.17;;;19.70;99.90;;;;;;5051183;28;20518;-69
2021/07/31 02:43:39;;;;;;;5.23;4.30;;;19.60;99.90;;;;;;5050914;28;20422;-69
2021/07/31 02:46:09;;;;;;;4.80;4.30;;;19.60;99.90;;;;;;5049320;28;20789;-71
2021/07/31 02:48:39;;;;;;;7.20;4.70;;;19.50;99.90;;;;;;5049663;28;20439;-70
2021/07/31 02:51:09;;;;;;;4.30;4.00;;;19.50;99.90;;;;;;5051048;28;20445;-71
2021/07/31 02:53:57;;;;;;;5.03;4.63;;;19.40;99.90;;;;;;5050974;28;20392;-71
2021/07/31 02:56:26;;;;;;;8.23;4.30;;;19.40;99.90;;;;;;5049382;28;20444;-70
2021/07/31 02:58:55;;;;;;;4.60;3.97;;;19.30;99.90;;;;;;5051077;28;20413;-71
2021/07/31 03:01:24;;;;;;;5.33;4.33;;;19.30;99.90;;;;;;5049323;28;20460;-71
2021/07/31 03:03:53;;;;;;;4.30;3.90;;;19.30;99.90;;;;;;5049256;28;20601;-70
2021/07/31 03:06:22;;;;;;;4.23;3.83;;;19.30;99.90;;;;;;5049396;28;20902;-70
2021/07/31 03:08:51;;;;;;;4.63;4.23;;;19.20;99.90;;;;;;5049254;28;20418;-71
2021/07/31 03:11:22;;;;;;;5.90;4.80;;;19.20;99.90;;;;;;5050012;28;20436;-69
2021/07/31 03:13:51;;;;;;;3.63;3.33;;;19.20;99.90;;;;;;5066414;28;20954;-70
2021/07/31 03:16:24;;;;;;;4.23;3.70;;;19.20;99.90;;;;;;5050106;28;20423;-71
2021/07/31 03:18:58;;;;;;;4.20;3.90;;;19.20;99.90;;;;;;5048828;28;20556;-71
2021/07/31 03:21:26;;;;;;;4.07;3.60;;;19.10;99.90;;;;;;5048873;28;20462;-70
2021/07/31 03:24:19;;;;;;;4.17;3.77;;;19.10;99.90;;;;;;5049746;28;20572;-70
2021/07/31 03:26:49;;;;;;;4.23;3.33;;;19.00;99.90;;;;;;5049771;28;20415;-70
2021/07/31 03:29:28;;;;;;;4.77;4.30;;;19.00;99.90;;;;;;5049744;28;20434;-69
2021/07/31 03:31:57;;;;;;;4.63;3.90;;;18.90;99.90;;;;;;5049991;28;20458;-70
2021/07/31 03:34:25;;;;;;;4.50;3.90;;;18.90;99.90;;;;;;5049719;28;20754;-70
2021/07/31 03:36:54;;;;;;;3.80;3.10;;;18.90;99.90;;;;;;5048155;28;20454;-70
2021/07/31 03:39:27;;;;;;;3.97;3.40;;;18.90;99.90;;;;;;5048348;28;20513;-71
2021/07/31 03:41:58;;;;;;;3.47;3.10;;;18.80;99.90;;;;;;5049826;28;20522;-70
2021/07/31 03:44:27;;;;;;;4.03;3.63;;;18.80;99.90;;;;;;5049613;28;20463;-70
2021/07/31 03:46:56;;;;;;;3.80;3.40;;;18.80;99.90;;;;;;5049434;28;20456;-72
2021/07/31 03:49:25;;;;;;;4.27;3.47;;;18.80;99.90;;;;;;5049261;28;20424;-70
2021/07/31 03:51:55;;;;;;;3.43;3.13;;;18.70;99.90;;;;;;5049881;28;20788;-70
2021/07/31 03:54:25;;;;;;;3.90;3.60;;;18.80;99.90;;;;;;5049385;28;20473;-70
2021/07/31 03:56:53;;;;;;;4.77;3.30;;;18.70;99.90;;;;;;5049144;28;20768;-70
2021/07/31 03:59:35;;;;;;;3.97;3.30;;;18.70;99.90;;;;;;5049458;28;20832;-70
2021/07/31 04:02:05;;;;;;;3.00;2.63;;;18.80;99.90;;;;;;5049705;28;20543;-73
2021/07/31 04:04:36;;;;;;;5.03;3.17;;;18.70;99.90;;;;;;5048346;28;20554;-74
2021/07/31 04:07:06;;;;;;;4.57;3.20;;;18.70;99.90;;;;;;5049646;28;20568;-70
2021/07/31 04:09:53;;;;;;;3.53;2.33;;;18.60;99.90;;;;;;5049276;28;20891;-71
2021/07/31 04:12:40;;;;;;;3.47;3.17;;;18.60;99.90;;;;;;5050130;28;20414;-70
2021/07/31 04:15:19;;;;;;;4.23;3.20;;;18.80;99.90;;;;;;5050102;28;20437;-71
2021/07/31 04:17:51;;;;;;;4.40;2.70;;;19.50;99.90;;;;;;5049901;28;20439;-74
2021/07/31 04:20:20;;;;;;;4.00;3.20;;;20.70;99.90;;;;;;5050370;28;20505;-71
2021/07/31 04:22:48;;;;;;;2.50;2.23;;;21.90;99.90;;;;;;5049819;28;20444;-71
2021/07/31 04:25:20;;;;;;;3.03;2.37;;;22.70;99.90;;;;;;5048698;28;20940;-72
2021/07/31 04:27:48;;;;;;;2.63;2.43;;;23.60;99.90;;;;;;5050504;28;20425;-70
2021/07/31 04:30:16;;;;;;;3.40;2.50;;;24.00;99.90;;;;;;5050078;28;20808;-70
2021/07/31 04:32:45;;;;;;;3.73;2.10;;;24.60;99.90;;;;;;5048355;28;20453;-70
2021/07/31 04:35:13;;;;;;;3.37;3.07;;;25.10;99.90;;;;;;5049292;28;20394;-71
2021/07/31 04:37:42;;;;;;;3.07;2.77;;;25.80;99.90;;;;;;5049497;28;20481;-70
2021/07/31 04:40:11;;;;;;;3.77;2.20;;;26.00;99.90;;;;;;5049028;28;20943;-70
2021/07/31 04:42:39;;;;;;;3.70;2.63;;;26.30;99.90;;;;;;5049524;28;20390;-74
2021/07/31 04:45:08;;;;;;;2.70;2.03;;;26.50;99.90;;;;;;5048884;28;20459;-71
2021/07/31 04:47:37;;;;;;;3.17;2.87;;;27.00;99.90;;;;;;5049348;28;20430;-71
2021/07/31 04:50:08;;;;;;;3.87;2.60;;;27.00;99.90;;;;;;5049333;28;20905;-72
2021/07/31 04:52:37;;;;;;;2.93;2.53;;;27.10;99.90;;;;;;5049650;28;20888;-70
2021/07/31 04:55:06;;;;;;;5.13;3.00;;;27.80;99.90;;;;;;5049190;28;20535;-70
2021/07/31 04:57:35;;;;;;;3.60;2.90;;;27.60;99.90;;;;;;5049239;28;20944;-70
2021/07/31 05:00:05;;;;;;;3.00;2.50;;;27.90;99.90;;;;;;5049593;28;20518;-72
2021/07/31 05:02:33;;;;;;;2.60;1.90;;;28.00;99.90;;;;;;5065876;28;20427;-70
2021/07/31 05:05:02;;;;;;;2.90;1.80;;;27.60;99.90;;;;;;5050030;28;20501;-72
2021/07/31 05:07:31;;;;;;;1.90;1.77;;;27.90;99.90;;;;;;5049019;28;20982;-74
2021/07/31 05:10:00;;;;;;;3.33;1.73;;;27.80;99.90;;;;;;5051994;28;20506;-72
2021/07/31 05:12:28;;;;;;;2.70;1.93;;;28.40;99.90;;;;;;5052513;28;20398;-71
2021/07/31 05:14:57;;;;;;;2.87;1.67;;;28.80;99.90;;;;;;5052577;28;20402;-70
2021/07/31 05:17:25;;;;;;;1.97;1.77;;;29.50;99.90;;;;;;5052367;28;21052;-70
2021/07/31 05:19:53;;;;;;;2.80;1.87;;;30.00;99.90;;;;;;5052608;28;20497;-70
2021/07/31 05:22:22;;;;;;;1.47;1.17;;;30.30;99.90;;;;;;5052594;28;20444;-70
2021/07/31 05:24:54;;;;;;;1.57;1.03;;;30.80;99.90;;;;;;5052880;28;20796;-74
2021/07/31 05:27:22;;;;;;;3.00;1.80;;;31.10;99.90;;;;;;5052429;28;20900;-70
2021/07/31 05:29:50;;;;;;;2.03;1.43;;;29.10;99.90;;;;;;5052508;28;20431;-70
2021/07/31 05:32:18;;;;;;;2.17;1.60;;;27.20;99.90;;;;;;5051548;28;20426;-70
2021/07/31 05:34:47;;;;;;;3.13;1.70;;;25.60;99.90;;;;;;5051975;28;20423;-71
2021/07/31 05:37:15;;;;;;;1.97;1.60;;;24.30;99.90;;;;;;5051258;28;20940;-70
2021/07/31 05:39:44;;;;;;;2.33;1.40;;;23.60;99.90;;;;;;5051617;28;20398;-70
2021/07/31 05:42:16;;;;;;;1.60;1.47;;;22.80;99.90;;;;;;5051561;28;20516;-71
2021/07/31 05:44:45;;;;;;;2.10;1.83;;;22.10;99.90;;;;;;5050327;28;20963;-73
2021/07/31 05:47:13;;;;;;;2.43;1.40;;;21.70;99.90;;;;;;5049440;28;20483;-73
2021/07/31 05:49:41;;;;;;;3.97;1.83;;;21.70;99.90;;;;;;5051071;28;20443;-74
2021/07/31 05:52:09;;;;;;;4.40;1.67;;;21.50;99.90;;;;;;5051002;28;20504;-73
2021/07/31 05:54:37;;;;;;;3.63;1.90;;;21.40;99.90;;;;;;5050213;28;20443;-74
2021/07/31 05:57:06;;;;;;;2.07;1.80;;;21.10;99.90;;;;;;5051087;28;20447;-72
2021/07/31 05:59:36;;;;;;;2.40;1.60;;;20.90;99.90;;;;;;5051625;28;20398;-71
2021/07/31 06:02:06;;;;;;;2.40;1.63;;;20.70;99.90;;;;;;5051626;28;20454;-70
2021/07/31 06:04:35;;;;;;;2.13;1.50;;;20.50;99.90;;;;;;5052055;28;20394;-70
2021/07/31 06:07:06;;;;;;;2.57;1.67;;;20.30;99.90;;;;;;5051353;28;20436;-70
2021/07/31 06:09:34;;;;;;;2.73;1.40;;;20.20;99.90;;;;;;5051869;28;20757;-71
2021/07/31 06:12:03;;;;;;;2.63;1.70;;;20.20;99.90;;;;;;5052154;28;20597;-70
2021/07/31 06:14:34;;;;;;;2.03;1.70;;;20.10;99.90;;;;;;5052596;28;20419;-71
2021/07/31 06:17:04;;;;;;;1.50;1.10;;;20.30;99.90;;;;;;5051390;28;20832;-71
2021/07/31 06:19:33;;;;;;;1.93;1.20;;;20.40;99.90;;;;;;5050373;28;20416;-71
2021/07/31 06:22:03;;;;;;;5.30;2.17;;;20.60;99.90;;;;;;5052138;28;20847;-73
2021/07/31 06:24:31;;;;;;;3.87;1.63;;;20.60;99.90;;;;;;5052342;28;20437;-70
2021/07/31 06:26:59;;;;;;;17.43;2.03;;;20.60;99.90;;;;;;5051863;28;20445;-71
2021/07/31 06:29:27;;;;;;;6.40;1.97;;;20.60;99.90;;;;;;5051685;28;20763;-70
2021/07/31 06:31:55;;;;;;;3.10;1.70;;;20.70;99.90;;;;;;5052111;28;20430;-70
2021/07/31 06:34:26;;;;;;;3.53;1.50;;;20.80;99.90;;;;;;5052333;28;20756;-70
2021/07/31 06:36:54;;;;;;;1.73;1.40;;;20.80;99.90;;;;;;5051047;28;20794;-70
2021/07/31 06:39:22;;;;;;;2.80;1.57;;;21.00;99.90;;;;;;5051173;28;20750;-70
2021/07/31 06:41:50;;;;;;;3.87;1.40;;;20.80;99.90;;;;;;5050847;28;20501;-71
2021/07/31 06:44:18;;;;;;;2.80;1.30;;;20.60;99.90;;;;;;5050869;28;20427;-71
2021/07/31 06:46:47;;;;;;;2.00;1.40;;;20.70;99.90;;;;;;5050568;28;20780;-70
2021/07/31 06:49:15;;;;;;;3.73;1.40;;;20.90;99.90;;;;;;5051017;28;20440;-70
2021/07/31 06:51:44;;;;;;;2.70;1.20;;;21.00;99.90;;;;;;5050980;28;20443;-71
2021/07/31 06:54:12;;;;;;;2.57;1.37;;;21.10;99.90;;;;;;5050952;28;20418;-74
2021/07/31 06:56:40;;;;;;;2.40;1.23;;;21.00;99.90;;;;;;5050256;28;20394;-74
2021/07/31 06:59:08;;;;;;;2.23;1.17;;;21.00;99.90;;;;;;5050113;28;20442;-71
2021/07/31 07:01:36;;;;;;;1.43;1.00;;;21.20;99.90;;;;;;5050857;28;20418;-71
2021/07/31 07:04:05;;;;;;;3.00;1.60;;;21.40;99.90;;;;;;5050864;28;20416;-71
2021/07/31 07:06:33;;;;;;;2.00;1.40;;;21.40;99.90;;;;;;5050272;28;20459;-71
2021/07/31 07:09:03;;;;;;;5.00;3.90;;;21.40;99.90;;;;;;5050718;28;20424;-71
2021/07/31 07:11:31;;;;;;;1.37;1.20;;;21.60;99.90;;;;;;5048959;28;20793;-72
2021/07/31 07:13:59;;;;;;;5.13;1.50;;;21.70;99.90;;;;;;5048986;28;20412;-73
2021/07/31 07:16:28;;;;;;;1.20;0.93;;;21.80;99.90;;;;;;5050118;28;20398;-71
2021/07/31 07:18:56;;;;;;;1.50;1.10;;;21.80;99.90;;;;;;5049871;28;20413;-71
2021/07/31 07:21:24;;;;;;;2.03;1.27;;;21.90;99.90;;;;;;5049691;28;20512;-70
2021/07/31 07:23:52;;;;;;;1.77;1.03;;;21.90;99.90;;;;;;5050002;28;20412;-71
2021/07/31 07:26:22;;;;;;;1.50;1.03;;;22.00;99.90;;;;;;5050155;28;20449;-71
2021/07/31 07:28:50;;;;;;;3.30;1.43;;;22.00;99.90;;;;;;5048579;28;20409;-71
2021/07/31 07:31:18;;;;;;;1.93;1.33;;;22.10;99.90;;;;;;5049610;28;20888;-71
2021/07/31 07:33:46;;;;;;;2.70;1.60;;;22.00;99.90;;;;;;5050339;28;20427;-71
2021/07/31 07:36:16;;;;;;;4.43;1.30;;;22.10;99.90;;;;;;5049876;28;20398;-70
2021/07/31 07:38:45;;;;;;;1.80;1.57;;;22.10;99.90;;;;;;5050075;28;20404;-70
2021/07/31 07:41:15;;;;;;;1.70;1.10;;;22.40;99.90;;;;;;5049876;28;20414;-70
2021/07/31 07:43:45;;;;;;;2.60;1.30;;;22.40;99.90;;;;;;5064935;28;20409;-74
2021/07/31 07:46:14;;;;;;;1.77;1.40;;;22.50;99.90;;;;;;5049633;28;20772;-70
2021/07/31 07:48:43;;;;;;;2.47;1.30;;;22.60;99.90;;;;;;5049776;28;20440;-71
2021/07/31 07:51:11;;;;;;;2.00;1.30;;;22.90;99.90;;;;;;5049809;28;20796;-70
2021/07/31 07:53:39;;;;;;;2.73;1.40;;;23.00;99.90;;;;;;5049849;28;20730;-70
2021/07/31 07:56:07;;;;;;;2.43;1.40;;;23.10;99.90;;;;;;5050178;28;20416;-72
2021/07/31 07:58:35;;;;;;;2.53;1.33;;;23.00;99.90;;;;;;5050089;28;20400;-73
2021/07/31 08:01:09;;;;;;;2.37;1.47;;;23.00;99.90;;;;;;5050008;28;20478;-72
2021/07/31 08:03:38;;;;;;;1.87;1.10;;;23.00;99.90;;;;;;5049804;28;20401;-73
2021/07/31 08:06:06;;;;;;;1.73;1.20;;;23.20;99.90;;;;;;5049572;28;20965;-71
2021/07/31 08:08:34;;;;;;;1.80;1.30;;;23.40;99.90;;;;;;5049620;28;20561;-70
2021/07/31 08:11:03;;;;;;;1.93;1.30;;;23.60;99.90;;;;;;5048381;28;20438;-70
2021/07/31 08:13:31;;;;;;;3.57;1.30;;;23.90;99.90;;;;;;5050184;28;20498;-71
2021/07/31 08:15:59;;;;;;;2.40;1.43;;;24.40;99.90;;;;;;5049425;28;20414;-71
2021/07/31 08:18:29;;;;;;;1.90;1.20;;;24.00;99.90;;;;;;5049424;28;20786;-71
2021/07/31 08:20:57;;;;;;;2.30;1.50;;;24.20;99.90;;;;;;5049553;28;20422;-70
2021/07/31 08:23:25;;;;;;;2.10;1.43;;;24.10;99.90;;;;;;5049372;28;20410;-69
2021/07/31 08:25:53;;;;;;;3.23;1.03;;;24.00;99.90;;;;;;5066206;28;20431;-71
2021/07/31 08:28:21;;;;;;;3.23;1.10;;;23.90;99.90;;;;;;5050978;28;20470;-70
2021/07/31 08:30:50;;;;;;;1.73;1.03;;;23.60;99.90;;;;;;5051655;28;20518;-70
2021/07/31 08:33:18;;;;;;;1.50;1.30;;;23.60;99.90;;;;;;5051780;28;20874;-70
2021/07/31 08:35:48;;;;;;;2.40;1.33;;;23.80;99.90;;;;;;5052162;28;20420;-73
2021/07/31 08:38:16;;;;;;;2.60;1.00;;;24.00;99.90;;;;;;5049478;28;20402;-69
2021/07/31 08:40:45;;;;;;;2.93;1.33;;;24.00;99.90;;;;;;5049489;28;20442;-70
2021/07/31 08:43:13;;;;;;;1.30;0.80;;;23.70;99.90;;;;;;5051151;28;20940;-71
2021/07/31 08:45:42;;;;;;;1.10;0.80;;;23.40;99.90;;;;;;5052701;28;20414;-70
2021/07/31 08:48:10;;;;;;;2.17;1.10;;;23.50;99.90;;;;;;5052506;28;20838;-71
2021/07/31 08:50:40;;;;;;;2.57;1.80;;;23.80;99.90;;;;;;5053322;28;20969;-74
2021/07/31 08:53:09;;;;;;;1.50;1.00;;;24.10;99.90;;;;;;5052897;28;20404;-70
2021/07/31 08:55:43;;;;;;;1.63;0.90;;;24.20;99.90;;;;;;5052518;28;20393;-73
2021/07/31 08:58:11;;;;;;;1.57;1.00;;;24.10;99.90;;;;;;5052962;28;20419;-72
2021/07/31 09:00:39;;;;;;;1.20;0.80;;;24.00;99.90;;;;;;5052654;28;20443;-73
2021/07/31 09:03:08;;;;;;;2.13;1.37;;;23.90;99.90;;;;;;5052388;28;20982;-70
2021/07/31 09:05:38;;;;;;;1.77;0.90;;;23.80;99.90;;;;;;5047308;28;20418;-71
2021/07/31 09:08:11;;;;;;;1.20;1.07;;;23.80;99.90;;;;;;5051639;28;20489;-70
2021/07/31 09:10:41;;;;;;;1.40;1.10;;;23.90;99.90;;;;;;5050728;28;20470;-70
2021/07/31 09:13:12;;;;;;;2.30;1.90;;;24.50;99.90;;;;;;5053261;28;20806;-71
2021/07/31 09:15:42;;;;;;;1.47;1.07;;;24.90;99.90;;;;;;5053062;28;20419;-69
2021/07/31 09:18:21;;;;;;;2.80;1.53;;;25.10;99.90;;;;;;5053179;28;20771;-70
2021/07/31 09:21:09;;;;;;;2.23;0.90;;;25.10;99.90;;;;;;5053343;28;20508;-70
2021/07/31 09:23:56;;;;;;;1.87;1.20;;;25.00;99.90;;;;;;5052933;28;20604;-70
2021/07/31 09:26:31;;;;;;;6.63;1.60;;;25.10;99.90;;;;;;5052952;28;20421;-70
2021/07/31 09:29:01;;;;;;;2.83;1.20;;;25.40;99.90;;;;;;5052812;28;20459;-74
2021/07/31 09:31:31;;;;;;;2.40;1.00;;;25.00;99.90;;;;;;5053214;28;20561;-73
2021/07/31 09:34:02;;;;;;;4.20;1.20;;;25.00;99.90;;;;;;5052796;28;20427;-70
2021/07/31 09:36:36;;;;;;;1.83;1.10;;;25.00;99.90;;;;;;5052870;28;20427;-72
2021/07/31 09:39:07;;;;;;;1.50;1.27;;;24.70;99.90;;;;;;5052973;28;20430;-71
2021/07/31 09:41:37;;;;;;;2.37;1.90;;;24.20;99.90;;;;;;5052775;28;20439;-71
2021/07/31 09:44:11;;;;;;;2.73;1.50;;;24.30;99.90;;;;;;5068252;28;20429;-70
2021/07/31 09:46:42;;;;;;;2.40;1.50;;;24.70;99.90;;;;;;5051692;28;20496;-71
2021/07/31 09:49:12;;;;;;;2.43;1.00;;;24.80;99.90;;;;;;5052928;28;20625;-70
2021/07/31 09:51:42;;;;;;;3.43;1.43;;;24.70;99.90;;;;;;5053418;28;20414;-70
2021/07/31 09:54:14;;;;;;;2.67;1.30;;;24.90;99.90;;;;;;5051485;28;20431;-72
2021/07/31 09:56:44;;;;;;;1.40;1.07;;;24.80;99.90;;;;;;5052448;28;20945;-70
2021/07/31 09:59:14;;;;;;;1.93;1.17;;;25.10;99.90;;;;;;5052537;28;20914;-71
2021/07/31 10:01:44;;;;;;;1.60;1.07;;;25.10;99.90;;;;;;5052113;28;20445;-74
2021/07/31 10:04:13;;;;;;;1.80;1.20;;;25.20;99.90;;;;;;5067661;28;20443;-70
2021/07/31 10:06:41;;;;;;;3.57;1.50;;;25.50;99.90;;;;;;5052176;28;20423;-71
2021/07/31 10:09:12;;;;;;;1.87;1.20;;;26.00;99.90;;;;;;5052237;28;20528;-70
2021/07/31 10:11:43;;;;;;;1.50;1.20;;;25.90;99.90;;;;;;5052499;28;20866;-73
2021/07/31 10:14:12;;;;;;;2.13;1.20;;;25.60;99.90;;;;;;5052294;28;20492;-70
2021/07/31 10:16:47;;;;;;;1.97;1.40;;;25.30;99.90;;;;;;5052040;28;20394;-71
2021/07/31 10:19:15;;;;;;;1.50;1.20;;;25.10;99.90;;;;;;5051819;28;20889;-71
2021/07/31 10:21:49;;;;;;;1.53;1.10;;;25.20;99.90;;;;;;5052119;28;20984;-71
2021/07/31 10:24:19;;;;;;;1.60;0.90;;;24.80;99.90;;;;;;5052298;28;20497;-71
2021/07/31 10:27:19;;;;;;;1.70;1.27;;;24.80;99.90;;;;;;5051413;28;20442;-71
2021/07/31 10:29:49;;;;;;;2.30;0.97;;;25.10;99.90;;;;;;5052745;28;20491;-70
2021/07/31 10:32:40;;;;;;;2.23;1.07;;;25.40;99.90;;;;;;5052372;28;20783;-72
2021/07/31 10:35:22;;;;;;;1.93;1.10;;;25.50;99.90;;;;;;5051617;28;20463;-70
2021/07/31 10:37:50;;;;;;;3.10;1.23;;;25.10;99.90;;;;;;5051665;28;20444;-70
2021/07/31 10:40:48;;;;;;;2.53;1.13;;;25.00;99.90;;;;;;5051324;28;20491;-70
2021/07/31 10:43:17;;;;;;;2.07;1.20;;;25.30;99.90;;;;;;5050340;28;20415;-71
2021/07/31 10:45:49;;;;;;;2.43;1.00;;;25.40;99.90;;;;;;5047707;28;20438;-74
2021/07/31 10:48:38;;;;;;;1.93;1.30;;;25.30;99.90;;;;;;5050005;28;20466;-71
2021/07/31 10:51:06;;;;;;;1.50;1.17;;;24.80;99.90;;;;;;5044000;28;20471;-71
2021/07/31 10:53:52;;;;;;;1.87;1.47;;;24.10;99.90;;;;;;5048898;28;20439;-70
2021/07/31 10:56:22;;;;;;;4.23;1.30;;;23.80;99.90;;;;;;5049812;28;20398;-71
2021/07/31 10:59:23;;;;;;;3.10;1.70;;;23.60;99.90;;;;;;5049763;28;20382;-71
2021/07/31 11:02:29;;;;;;;1.57;1.20;;;23.60;99.90;;;;;;4968548;28;20859;-70
2021/07/31 11:04:59;;;;;;;1.40;1.00;;;23.50;99.90;;;;;;4968014;28;20841;-70
2021/07/31 11:07:29;;;;;;;1.70;1.37;;;23.70;99.90;;;;;;5028739;28;21083;-70
2021/07/31 11:10:39;;;;;;;2.13;1.30;;;24.10;99.90;;;;;;5049985;28;20430;-70
2021/07/31 11:13:10;;;;;;;3.17;1.20;;;24.60;99.90;;;;;;5049554;28;20398;-71
2021/07/31 11:15:59;;;;;;;3.70;1.43;;;24.50;99.90;;;;;;5045785;28;20434;-71
2021/07/31 11:18:42;;;;;;;3.60;2.90;;;24.50;99.90;;;;;;5049792;28;20411;-72
2021/07/31 11:21:11;;;;;;;3.17;1.30;;;24.60;99.90;;;;;;5049551;28;21020;-74
2021/07/31 11:23:40;;;;;;;1.33;1.00;;;24.90;99.90;;;;;;5072495;22;20486;-83
2021/07/31 11:26:09;;;;;;;4.20;1.10;;;25.30;99.90;;;;;;5083541;28;20456;-84
2021/07/31 11:28:38;;;;;;;1.63;1.10;;;25.30;99.90;;;;;;5083521;28;20474;-84
2021/07/31 11:31:16;;;;;;;1.87;1.00;;;24.70;99.90;;;;;;5083233;28;20418;-83
2021/07/31 11:33:57;;;;;;;2.80;1.50;;;24.30;99.90;;;;;;5082415;28;20439;-83
2021/07/31 11:36:26;;;;;;;1.70;1.27;;;24.10;99.90;;;;;;5082446;28;20625;-85
2021/07/31 11:38:55;;;;;;;1.30;0.90;;;24.20;99.90;;;;;;5082181;28;20423;-85
2021/07/31 11:41:23;;;;;;;3.53;1.40;;;24.60;99.90;;;;;;5083524;28;20431;-84
2021/07/31 11:43:54;;;;;;;2.73;1.70;;;24.80;99.90;;;;;;5065429;28;20447;-83
2021/07/31 11:46:30;;;;;;;1.70;1.17;;;24.80;99.90;;;;;;5081896;28;20501;-85
2021/07/31 11:49:00;;;;;;;1.67;1.20;;;24.70;99.90;;;;;;5081884;28;20469;-84
2021/07/31 11:51:29;;;;;;;2.37;1.50;;;24.70;99.90;;;;;;5084645;28;20430;-84
2021/07/31 11:54:04;;;;;;;1.30;1.20;;;24.60;99.90;;;;;;5082398;28;20512;-85
2021/07/31 11:56:33;;;;;;;1.70;0.90;;;24.70;99.90;;;;;;5082029;28;20396;-85
2021/07/31 11:59:05;;;;;;;1.87;1.40;;;25.00;99.90;;;;;;5082297;28;20462;-86
2021/07/31 12:01:34;;;;;;;2.10;1.50;;;25.30;99.90;;;;;;5083427;28;20419;-84
2021/07/31 12:04:03;;;;;;;3.93;2.13;;;25.10;99.90;;;;;;5083522;28;20450;-85
2021/07/31 12:06:35;;;;;;;2.87;2.40;;;25.20;99.90;;;;;;5083144;28;20419;-87
2021/07/31 12:09:05;;;;;;;1.33;1.13;;;25.60;99.90;;;;;;5085031;28;20446;-86
2021/07/31 12:11:40;;;;;;;2.47;1.40;;;25.60;99.90;;;;;;5082094;28;20442;-84
2021/07/31 12:14:29;;;;;;;1.73;1.20;;;25.50;99.90;;;;;;5082283;28;20478;-84
2021/07/31 12:17:21;;;;;;;2.20;1.20;;;25.00;99.90;;;;;;5082325;28;20417;-84
2021/07/31 12:19:51;;;;;;;1.90;0.93;;;24.80;99.90;;;;;;5084742;28;20819;-85
2021/07/31 12:22:24;;;;;;;1.40;1.07;;;24.20;99.90;;;;;;5086120;28;20928;-85
2021/07/31 12:25:16;;;;;;;2.23;1.27;;;23.90;99.90;;;;;;5085072;28;20873;-84
2021/07/31 12:28:01;;;;;;;1.77;1.20;;;23.80;99.90;;;;;;5086696;28;20410;-84
2021/07/31 12:30:43;;;;;;;1.50;0.97;;;24.10;99.90;;;;;;5087669;28;20535;-86
2021/07/31 12:33:19;;;;;;;1.63;1.10;;;24.20;99.90;;;;;;5085674;28;20429;-84
2021/07/31 12:35:48;;;;;;;1.60;1.03;;;24.70;99.90;;;;;;5084642;28;20869;-85
2021/07/31 12:38:21;;;;;;;1.10;0.90;;;25.00;99.90;;;;;;5065408;28;20405;-83
2021/07/31 12:40:57;;;;;;;1.70;1.00;;;25.20;99.90;;;;;;5084258;28;20501;-85
2021/07/31 12:43:28;;;;;;;1.40;0.97;;;24.90;99.90;;;;;;5067066;28;20540;-82
2021/07/31 12:45:59;;;;;;;2.20;1.00;;;24.80;99.90;;;;;;5068007;28;20420;-85
2021/07/31 12:48:29;;;;;;;1.40;0.80;;;24.70;99.90;;;;;;5084807;28;20459;-85
2021/07/31 12:50:57;;;;;;;1.40;1.07;;;24.70;99.90;;;;;;5085500;28;20445;-85
2021/07/31 12:53:28;;;;;;;1.70;0.90;;;24.60;99.90;;;;;;5068152;28;21044;-85
2021/07/31 12:55:57;;;;;;;1.20;0.80;;;24.60;99.90;;;;;;5090302;28;20426;-84
2021/07/31 12:58:28;;;;;;;1.60;1.30;;;24.50;99.90;;;;;;5097010;28;20444;-81
2021/07/31 13:00:58;;;;;;;3.53;1.27;;;24.80;99.90;;;;;;5096551;28;20426;-81
2021/07/31 13:03:28;;;;;;;1.40;1.00;;;24.80;99.90;;;;;;5098892;28;20430;-83
2021/07/31 13:05:56;;;;;;;2.83;1.23;;;24.30;99.90;;;;;;5098798;28;20410;-80
2021/07/31 13:08:24;;;;;;;1.80;1.20;;;24.10;99.90;;;;;;5097767;28;20385;-83